sensor_id;sensor_type;location;lat;lon;timestamp;P1;durP1;ratioP1;P2;durP2;ratioP2
50379;SDS011;37474;59.468;18.040;2022-10-16T00:00:11;41.03;;;24.63;;
50379;SDS011;37474;59.468;18.040;2022-10-16T00:02:40;42.97;;;24.33;;
50379;SDS011;37474;59.468;18.040;2022-10-16T00:05:08;47.60;;;24.30;;
50379;SDS011;37474;59.468;18.040;2022-10-16T00:07:39;38.53;;;23.67;;
50379;SDS011;37474;59.468;18.040;2022-10-16T00:10:07;38.10;;;22.80;;
50379;SDS011;37474;59.468;18.040;2022-10-16T00:12:37;36.50;;;22.73;;
50379;SDS011;37474;59.468;18.040;2022-10-16T00:15:07;33.87;;;20.70;;
50379;SDS011;37474;59.468;18.040;2022-10-16T00:17:35;33.83;;;20.53;;
50379;SDS011;37474;59.468;18.040;2022-10-16T00:20:04;34.63;;;20.37;;
50379;SDS011;37474;59.468;18.040;2022-10-16T00:22:35;26.67;;;17.73;;
50379;SDS011;37474;59.468;18.040;2022-10-16T00:25:06;29.80;;;18.40;;
50379;SDS011;37474;59.468;18.040;2022-10-16T00:27:35;25.13;;;16.77;;
50379;SDS011;37474;59.468;18.040;2022-10-16T00:30:05;28.03;;;16.50;;
50379;SDS011;37474;59.468;18.040;2022-10-16T00:32:36;26.03;;;16.47;;
50379;SDS011;37474;59.468;18.040;2022-10-16T00:35:04;23.07;;;15.80;;
50379;SDS011;37474;59.468;18.040;2022-10-16T00:37:34;25.67;;;16.77;;
50379;SDS011;37474;59.468;18.040;2022-10-16T00:40:06;23.90;;;16.87;;
50379;SDS011;37474;59.468;18.040;2022-10-16T00:42:35;25.40;;;16.87;;
50379;SDS011;37474;59.468;18.040;2022-10-16T00:45:05;24.93;;;17.00;;
50379;SDS011;37474;59.468;18.040;2022-10-16T00:47:36;23.80;;;16.20;;
50379;SDS011;37474;59.468;18.040;2022-10-16T00:50:06;27.20;;;17.15;;
50379;SDS011;37474;59.468;18.040;2022-10-16T00:52:41;26.47;;;17.17;;
50379;SDS011;37474;59.468;18.040;2022-10-16T00:55:15;22.47;;;15.50;;
50379;SDS011;37474;59.468;18.040;2022-10-16T00:57:46;22.60;;;15.03;;
50379;SDS011;37474;59.468;18.040;2022-10-16T01:00:16;19.33;;;14.07;;
50379;SDS011;37474;59.468;18.040;2022-10-16T01:02:51;20.30;;;15.07;;
50379;SDS011;37474;59.468;18.040;2022-10-16T01:05:20;22.27;;;15.13;;
50379;SDS011;37474;59.468;18.040;2022-10-16T01:07:53;22.33;;;15.20;;
50379;SDS011;37474;59.468;18.040;2022-10-16T01:10:30;21.37;;;14.57;;
50379;SDS011;37474;59.468;18.040;2022-10-16T01:13:07;24.17;;;14.53;;
50379;SDS011;37474;59.468;18.040;2022-10-16T01:15:37;24.97;;;16.13;;
50379;SDS011;37474;59.468;18.040;2022-10-16T01:18:14;21.57;;;15.50;;
50379;SDS011;37474;59.468;18.040;2022-10-16T01:20:47;20.70;;;14.63;;
50379;SDS011;37474;59.468;18.040;2022-10-16T01:23:31;21.80;;;15.57;;
50379;SDS011;37474;59.468;18.040;2022-10-16T01:26:10;24.17;;;15.77;;
50379;SDS011;37474;59.468;18.040;2022-10-16T01:28:54;24.97;;;15.70;;
50379;SDS011;37474;59.468;18.040;2022-10-16T01:31:25;24.13;;;16.37;;
50379;SDS011;37474;59.468;18.040;2022-10-16T01:33:59;24.63;;;16.00;;
50379;SDS011;37474;59.468;18.040;2022-10-16T01:36:31;22.93;;;16.13;;
50379;SDS011;37474;59.468;18.040;2022-10-16T01:39:08;23.80;;;16.50;;
50379;SDS011;37474;59.468;18.040;2022-10-16T01:41:39;25.27;;;16.47;;
50379;SDS011;37474;59.468;18.040;2022-10-16T01:44:16;25.47;;;16.70;;
50379;SDS011;37474;59.468;18.040;2022-10-16T01:46:48;24.00;;;16.47;;
50379;SDS011;37474;59.468;18.040;2022-10-16T01:49:21;25.03;;;16.50;;
50379;SDS011;37474;59.468;18.040;2022-10-16T01:51:54;23.70;;;16.43;;
50379;SDS011;37474;59.468;18.040;2022-10-16T01:54:30;24.60;;;16.33;;
50379;SDS011;37474;59.468;18.040;2022-10-16T01:57:00;22.30;;;15.63;;
50379;SDS011;37474;59.468;18.040;2022-10-16T01:59:36;20.60;;;15.67;;
50379;SDS011;37474;59.468;18.040;2022-10-16T02:02:08;24.17;;;15.87;;
50379;SDS011;37474;59.468;18.040;2022-10-16T02:04:42;24.58;;;16.23;;
50379;SDS011;37474;59.468;18.040;2022-10-16T02:07:12;22.30;;;15.37;;
50379;SDS011;37474;59.468;18.040;2022-10-16T02:09:43;22.17;;;15.33;;
50379;SDS011;37474;59.468;18.040;2022-10-16T02:12:13;23.00;;;15.67;;
50379;SDS011;37474;59.468;18.040;2022-10-16T02:14:53;18.83;;;13.80;;
50379;SDS011;37474;59.468;18.040;2022-10-16T02:17:22;20.53;;;14.53;;
50379;SDS011;37474;59.468;18.040;2022-10-16T02:19:52;19.03;;;13.63;;
50379;SDS011;37474;59.468;18.040;2022-10-16T02:22:26;20.70;;;14.53;;
50379;SDS011;37474;59.468;18.040;2022-10-16T02:24:59;20.53;;;14.07;;
50379;SDS011;37474;59.468;18.040;2022-10-16T02:27:34;18.33;;;13.77;;
50379;SDS011;37474;59.468;18.040;2022-10-16T02:30:13;17.93;;;13.17;;
50379;SDS011;37474;59.468;18.040;2022-10-16T02:32:48;18.00;;;12.77;;
50379;SDS011;37474;59.468;18.040;2022-10-16T02:35:20;21.77;;;13.30;;
50379;SDS011;37474;59.468;18.040;2022-10-16T02:37:51;18.70;;;13.50;;
50379;SDS011;37474;59.468;18.040;2022-10-16T02:40:23;20.73;;;13.40;;
50379;SDS011;37474;59.468;18.040;2022-10-16T02:42:52;18.60;;;13.63;;
50379;SDS011;37474;59.468;18.040;2022-10-16T02:45:24;18.60;;;13.27;;
50379;SDS011;37474;59.468;18.040;2022-10-16T02:47:55;16.93;;;12.63;;
50379;SDS011;37474;59.468;18.040;2022-10-16T02:50:25;16.80;;;12.70;;
50379;SDS011;37474;59.468;18.040;2022-10-16T02:52:55;19.50;;;12.40;;
50379;SDS011;37474;59.468;18.040;2022-10-16T02:55:23;19.77;;;11.93;;
50379;SDS011;37474;59.468;18.040;2022-10-16T02:57:53;19.00;;;12.93;;
50379;SDS011;37474;59.468;18.040;2022-10-16T03:00:24;16.40;;;11.93;;
50379;SDS011;37474;59.468;18.040;2022-10-16T03:02:52;18.57;;;12.30;;
50379;SDS011;37474;59.468;18.040;2022-10-16T03:05:22;18.37;;;12.07;;
50379;SDS011;37474;59.468;18.040;2022-10-16T03:07:52;16.57;;;12.50;;
50379;SDS011;37474;59.468;18.040;2022-10-16T03:10:20;19.00;;;11.80;;
50379;SDS011;37474;59.468;18.040;2022-10-16T03:12:50;18.77;;;12.93;;
50379;SDS011;37474;59.468;18.040;2022-10-16T03:15:19;17.27;;;11.97;;
50379;SDS011;37474;59.468;18.040;2022-10-16T03:17:48;17.87;;;12.33;;
50379;SDS011;37474;59.468;18.040;2022-10-16T03:20:18;20.27;;;11.90;;
50379;SDS011;37474;59.468;18.040;2022-10-16T03:22:48;16.87;;;11.90;;
50379;SDS011;37474;59.468;18.040;2022-10-16T03:25:16;18.17;;;12.50;;
50379;SDS011;37474;59.468;18.040;2022-10-16T03:27:46;18.13;;;11.97;;
50379;SDS011;37474;59.468;18.040;2022-10-16T03:30:14;21.20;;;13.05;;
50379;SDS011;37474;59.468;18.040;2022-10-16T03:32:43;20.30;;;12.20;;
50379;SDS011;37474;59.468;18.040;2022-10-16T03:35:14;17.17;;;12.17;;
50379;SDS011;37474;59.468;18.040;2022-10-16T03:37:44;21.80;;;13.23;;
50379;SDS011;37474;59.468;18.040;2022-10-16T03:40:12;19.03;;;13.33;;
50379;SDS011;37474;59.468;18.040;2022-10-16T03:42:42;17.90;;;12.47;;
50379;SDS011;37474;59.468;18.040;2022-10-16T03:45:12;15.93;;;11.90;;
50379;SDS011;37474;59.468;18.040;2022-10-16T03:47:40;19.30;;;13.03;;
50379;SDS011;37474;59.468;18.040;2022-10-16T03:50:10;17.63;;;11.67;;
50379;SDS011;37474;59.468;18.040;2022-10-16T03:52:41;18.13;;;12.50;;
50379;SDS011;37474;59.468;18.040;2022-10-16T03:55:09;20.83;;;12.77;;
50379;SDS011;37474;59.468;18.040;2022-10-16T03:57:39;15.90;;;11.30;;
50379;SDS011;37474;59.468;18.040;2022-10-16T04:00:10;16.57;;;11.73;;
50379;SDS011;37474;59.468;18.040;2022-10-16T04:02:39;17.75;;;11.55;;
50379;SDS011;37474;59.468;18.040;2022-10-16T04:05:09;16.07;;;11.27;;
50379;SDS011;37474;59.468;18.040;2022-10-16T04:07:39;15.43;;;11.37;;
50379;SDS011;37474;59.468;18.040;2022-10-16T04:10:08;14.77;;;10.63;;
50379;SDS011;37474;59.468;18.040;2022-10-16T04:12:38;15.63;;;10.88;;
50379;SDS011;37474;59.468;18.040;2022-10-16T04:15:08;17.67;;;11.47;;
50379;SDS011;37474;59.468;18.040;2022-10-16T04:17:36;17.23;;;11.60;;
50379;SDS011;37474;59.468;18.040;2022-10-16T04:20:07;16.43;;;10.40;;
50379;SDS011;37474;59.468;18.040;2022-10-16T04:22:37;14.67;;;10.60;;
50379;SDS011;37474;59.468;18.040;2022-10-16T04:25:05;13.17;;;9.87;;
50379;SDS011;37474;59.468;18.040;2022-10-16T04:27:37;16.87;;;10.80;;
50379;SDS011;37474;59.468;18.040;2022-10-16T04:30:10;14.70;;;10.37;;
50379;SDS011;37474;59.468;18.040;2022-10-16T04:32:40;12.93;;;9.37;;
50379;SDS011;37474;59.468;18.040;2022-10-16T04:35:10;12.83;;;9.13;;
50379;SDS011;37474;59.468;18.040;2022-10-16T04:37:40;12.73;;;8.87;;
50379;SDS011;37474;59.468;18.040;2022-10-16T04:40:08;15.65;;;9.30;;
50379;SDS011;37474;59.468;18.040;2022-10-16T04:42:39;10.43;;;8.23;;
50379;SDS011;37474;59.468;18.040;2022-10-16T04:45:10;15.38;;;9.07;;
50379;SDS011;37474;59.468;18.040;2022-10-16T04:47:42;12.20;;;8.53;;
50379;SDS011;37474;59.468;18.040;2022-10-16T04:50:14;12.38;;;8.85;;
50379;SDS011;37474;59.468;18.040;2022-10-16T04:52:45;10.85;;;8.48;;
50379;SDS011;37474;59.468;18.040;2022-10-16T04:55:12;12.77;;;8.75;;
50379;SDS011;37474;59.468;18.040;2022-10-16T04:57:42;11.53;;;8.13;;
50379;SDS011;37474;59.468;18.040;2022-10-16T05:00:12;10.90;;;8.13;;
50379;SDS011;37474;59.468;18.040;2022-10-16T05:05:10;15.23;;;9.07;;
50379;SDS011;37474;59.468;18.040;2022-10-16T05:07:39;11.43;;;8.13;;
50379;SDS011;37474;59.468;18.040;2022-10-16T05:10:08;13.20;;;8.68;;
50379;SDS011;37474;59.468;18.040;2022-10-16T05:12:36;12.50;;;8.50;;
50379;SDS011;37474;59.468;18.040;2022-10-16T05:15:08;11.67;;;8.23;;
50379;SDS011;37474;59.468;18.040;2022-10-16T05:17:38;11.90;;;7.93;;
50379;SDS011;37474;59.468;18.040;2022-10-16T05:20:12;11.10;;;8.20;;
50379;SDS011;37474;59.468;18.040;2022-10-16T05:22:42;14.80;;;7.97;;
50379;SDS011;37474;59.468;18.040;2022-10-16T05:25:10;13.17;;;8.00;;
50379;SDS011;37474;59.468;18.040;2022-10-16T05:27:39;12.67;;;8.53;;
50379;SDS011;37474;59.468;18.040;2022-10-16T05:30:10;11.48;;;8.07;;
50379;SDS011;37474;59.468;18.040;2022-10-16T05:32:38;11.52;;;7.95;;
50379;SDS011;37474;59.468;18.040;2022-10-16T05:35:08;10.30;;;7.77;;
50379;SDS011;37474;59.468;18.040;2022-10-16T05:37:38;11.00;;;7.87;;
50379;SDS011;37474;59.468;18.040;2022-10-16T05:40:08;10.50;;;7.70;;
50379;SDS011;37474;59.468;18.040;2022-10-16T05:42:36;10.37;;;7.63;;
50379;SDS011;37474;59.468;18.040;2022-10-16T05:45:07;16.55;;;8.45;;
50379;SDS011;37474;59.468;18.040;2022-10-16T05:47:39;13.53;;;8.80;;
50379;SDS011;37474;59.468;18.040;2022-10-16T05:50:09;10.77;;;9.13;;
50379;SDS011;37474;59.468;18.040;2022-10-16T05:52:45;13.00;;;9.33;;
50379;SDS011;37474;59.468;18.040;2022-10-16T05:55:17;13.07;;;8.90;;
50379;SDS011;37474;59.468;18.040;2022-10-16T05:57:46;11.67;;;8.80;;
50379;SDS011;37474;59.468;18.040;2022-10-16T06:00:15;14.17;;;10.03;;
50379;SDS011;37474;59.468;18.040;2022-10-16T06:02:47;12.63;;;10.10;;
50379;SDS011;37474;59.468;18.040;2022-10-16T06:05:15;15.85;;;9.93;;
50379;SDS011;37474;59.468;18.040;2022-10-16T06:07:43;14.70;;;10.17;;
50379;SDS011;37474;59.468;18.040;2022-10-16T06:10:15;14.80;;;10.43;;
50379;SDS011;37474;59.468;18.040;2022-10-16T06:12:43;17.17;;;11.15;;
50379;SDS011;37474;59.468;18.040;2022-10-16T06:15:10;16.07;;;11.00;;
50379;SDS011;37474;59.468;18.040;2022-10-16T06:17:42;16.80;;;11.45;;
50379;SDS011;37474;59.468;18.040;2022-10-16T06:20:09;15.43;;;11.43;;
50379;SDS011;37474;59.468;18.040;2022-10-16T06:22:37;17.40;;;10.33;;
50379;SDS011;37474;59.468;18.040;2022-10-16T06:25:07;14.07;;;9.90;;
50379;SDS011;37474;59.468;18.040;2022-10-16T06:27:35;16.03;;;11.63;;
50379;SDS011;37474;59.468;18.040;2022-10-16T06:30:04;15.90;;;11.13;;
50379;SDS011;37474;59.468;18.040;2022-10-16T06:32:36;16.77;;;11.47;;
50379;SDS011;37474;59.468;18.040;2022-10-16T06:35:06;20.33;;;12.48;;
50379;SDS011;37474;59.468;18.040;2022-10-16T06:37:34;15.05;;;11.38;;
50379;SDS011;37474;59.468;18.040;2022-10-16T06:40:07;17.02;;;11.05;;
50379;SDS011;37474;59.468;18.040;2022-10-16T06:42:35;17.70;;;12.07;;
50379;SDS011;37474;59.468;18.040;2022-10-16T06:45:03;16.57;;;12.20;;
50379;SDS011;37474;59.468;18.040;2022-10-16T06:47:34;17.38;;;12.52;;
50379;SDS011;37474;59.468;18.040;2022-10-16T06:50:03;17.00;;;12.45;;
50379;SDS011;37474;59.468;18.040;2022-10-16T06:52:34;18.00;;;12.85;;
50379;SDS011;37474;59.468;18.040;2022-10-16T06:55:06;15.90;;;11.83;;
50379;SDS011;37474;59.468;18.040;2022-10-16T06:57:34;16.53;;;12.73;;
50379;SDS011;37474;59.468;18.040;2022-10-16T07:00:02;17.97;;;13.23;;
50379;SDS011;37474;59.468;18.040;2022-10-16T07:02:33;18.50;;;12.60;;
50379;SDS011;37474;59.468;18.040;2022-10-16T07:05:01;17.93;;;12.10;;
50379;SDS011;37474;59.468;18.040;2022-10-16T07:07:29;16.43;;;11.93;;
50379;SDS011;37474;59.468;18.040;2022-10-16T07:10:00;19.48;;;13.13;;
50379;SDS011;37474;59.468;18.040;2022-10-16T07:12:28;17.55;;;11.75;;
50379;SDS011;37474;59.468;18.040;2022-10-16T07:14:56;19.53;;;12.23;;
50379;SDS011;37474;59.468;18.040;2022-10-16T07:17:24;16.43;;;12.10;;
50379;SDS011;37474;59.468;18.040;2022-10-16T07:19:51;18.40;;;12.60;;
50379;SDS011;37474;59.468;18.040;2022-10-16T07:22:21;21.10;;;12.27;;
50379;SDS011;37474;59.468;18.040;2022-10-16T07:24:52;18.33;;;12.40;;
50379;SDS011;37474;59.468;18.040;2022-10-16T07:27:21;18.05;;;11.98;;
50379;SDS011;37474;59.468;18.040;2022-10-16T07:29:52;17.83;;;11.30;;
50379;SDS011;37474;59.468;18.040;2022-10-16T07:32:22;20.63;;;11.57;;
50379;SDS011;37474;59.468;18.040;2022-10-16T07:34:52;18.58;;;12.20;;
50379;SDS011;37474;59.468;18.040;2022-10-16T07:37:25;14.93;;;10.93;;
50379;SDS011;37474;59.468;18.040;2022-10-16T07:42:23;16.13;;;11.07;;
50379;SDS011;37474;59.468;18.040;2022-10-16T07:44:50;15.67;;;10.93;;
50379;SDS011;37474;59.468;18.040;2022-10-16T07:47:18;13.70;;;9.33;;
50379;SDS011;37474;59.468;18.040;2022-10-16T07:49:47;13.97;;;9.83;;
50379;SDS011;37474;59.468;18.040;2022-10-16T07:52:14;17.43;;;10.07;;
50379;SDS011;37474;59.468;18.040;2022-10-16T07:54:42;13.63;;;9.47;;
50379;SDS011;37474;59.468;18.040;2022-10-16T07:57:12;13.77;;;9.57;;
50379;SDS011;37474;59.468;18.040;2022-10-16T07:59:48;11.03;;;8.43;;
50379;SDS011;37474;59.468;18.040;2022-10-16T08:02:16;11.50;;;8.40;;
50379;SDS011;37474;59.468;18.040;2022-10-16T08:04:46;11.67;;;7.63;;
50379;SDS011;37474;59.468;18.040;2022-10-16T08:07:16;11.43;;;7.57;;
50379;SDS011;37474;59.468;18.040;2022-10-16T08:09:48;11.60;;;7.37;;
50379;SDS011;37474;59.468;18.040;2022-10-16T08:12:18;8.40;;;6.70;;
50379;SDS011;37474;59.468;18.040;2022-10-16T08:14:48;10.70;;;6.20;;
50379;SDS011;37474;59.468;18.040;2022-10-16T08:17:16;9.13;;;6.40;;
50379;SDS011;37474;59.468;18.040;2022-10-16T08:19:44;8.20;;;5.67;;
50379;SDS011;37474;59.468;18.040;2022-10-16T08:22:13;7.53;;;5.63;;
50379;SDS011;37474;59.468;18.040;2022-10-16T08:24:42;9.60;;;4.80;;
50379;SDS011;37474;59.468;18.040;2022-10-16T08:27:09;8.73;;;4.73;;
50379;SDS011;37474;59.468;18.040;2022-10-16T08:29:39;6.40;;;4.63;;
50379;SDS011;37474;59.468;18.040;2022-10-16T08:32:08;7.32;;;4.68;;
50379;SDS011;37474;59.468;18.040;2022-10-16T08:34:36;10.10;;;5.10;;
50379;SDS011;37474;59.468;18.040;2022-10-16T08:37:06;7.63;;;5.17;;
50379;SDS011;37474;59.468;18.040;2022-10-16T08:39:37;4.87;;;4.30;;
50379;SDS011;37474;59.468;18.040;2022-10-16T08:42:11;7.85;;;4.75;;
50379;SDS011;37474;59.468;18.040;2022-10-16T08:45:03;6.87;;;4.10;;
50379;SDS011;37474;59.468;18.040;2022-10-16T08:47:52;11.20;;;5.07;;
50379;SDS011;37474;59.468;18.040;2022-10-16T08:50:30;7.23;;;5.30;;
50379;SDS011;37474;59.468;18.040;2022-10-16T08:53:02;8.43;;;4.83;;
50379;SDS011;37474;59.468;18.040;2022-10-16T08:55:37;9.35;;;4.68;;
50379;SDS011;37474;59.468;18.040;2022-10-16T08:58:10;9.33;;;5.13;;
50379;SDS011;37474;59.468;18.040;2022-10-16T09:00:40;7.78;;;4.55;;
50379;SDS011;37474;59.468;18.040;2022-10-16T09:03:14;6.05;;;4.45;;
50379;SDS011;37474;59.468;18.040;2022-10-16T09:05:54;7.33;;;4.73;;
50379;SDS011;37474;59.468;18.040;2022-10-16T09:08:35;7.63;;;4.30;;
50379;SDS011;37474;59.468;18.040;2022-10-16T09:11:17;6.97;;;4.07;;
50379;SDS011;37474;59.468;18.040;2022-10-16T09:13:54;6.57;;;4.13;;
50379;SDS011;37474;59.468;18.040;2022-10-16T09:16:32;5.00;;;4.20;;
50379;SDS011;37474;59.468;18.040;2022-10-16T09:19:06;8.47;;;4.00;;
50379;SDS011;37474;59.468;18.040;2022-10-16T09:21:44;4.70;;;3.70;;
50379;SDS011;37474;59.468;18.040;2022-10-16T09:24:29;5.57;;;3.37;;
50379;SDS011;37474;59.468;18.040;2022-10-16T09:26:57;7.10;;;3.70;;
50379;SDS011;37474;59.468;18.040;2022-10-16T09:29:25;4.43;;;3.70;;
50379;SDS011;37474;59.468;18.040;2022-10-16T09:31:53;7.37;;;4.20;;
50379;SDS011;37474;59.468;18.040;2022-10-16T09:34:30;4.70;;;3.63;;
50379;SDS011;37474;59.468;18.040;2022-10-16T09:37:00;6.50;;;3.33;;
50379;SDS011;37474;59.468;18.040;2022-10-16T09:39:43;7.17;;;3.53;;
50379;SDS011;37474;59.468;18.040;2022-10-16T09:42:13;6.03;;;3.50;;
50379;SDS011;37474;59.468;18.040;2022-10-16T09:44:47;6.00;;;3.03;;
50379;SDS011;37474;59.468;18.040;2022-10-16T09:47:17;6.27;;;3.23;;
50379;SDS011;37474;59.468;18.040;2022-10-16T09:49:52;3.90;;;2.67;;
50379;SDS011;37474;59.468;18.040;2022-10-16T09:52:21;8.13;;;3.00;;
50379;SDS011;37474;59.468;18.040;2022-10-16T09:54:51;7.00;;;2.80;;
50379;SDS011;37474;59.468;18.040;2022-10-16T09:57:20;7.43;;;3.00;;
50379;SDS011;37474;59.468;18.040;2022-10-16T09:59:50;4.18;;;2.67;;
50379;SDS011;37474;59.468;18.040;2022-10-16T10:02:26;6.03;;;2.60;;
50379;SDS011;37474;59.468;18.040;2022-10-16T10:04:58;6.63;;;2.85;;
50379;SDS011;37474;59.468;18.040;2022-10-16T10:07:30;6.97;;;2.80;;
50379;SDS011;37474;59.468;18.040;2022-10-16T10:09:59;8.00;;;3.00;;
50379;SDS011;37474;59.468;18.040;2022-10-16T10:12:30;7.32;;;2.47;;
50379;SDS011;37474;59.468;18.040;2022-10-16T10:15:03;5.07;;;2.30;;
50379;SDS011;37474;59.468;18.040;2022-10-16T10:17:44;4.78;;;2.45;;
50379;SDS011;37474;59.468;18.040;2022-10-16T10:20:22;5.50;;;2.10;;
50379;SDS011;37474;59.468;18.040;2022-10-16T10:22:53;4.22;;;2.30;;
50379;SDS011;37474;59.468;18.040;2022-10-16T10:25:25;5.73;;;2.60;;
50379;SDS011;37474;59.468;18.040;2022-10-16T10:31:09;6.90;;;2.43;;
50379;SDS011;37474;59.468;18.040;2022-10-16T10:33:45;5.80;;;2.30;;
50379;SDS011;37474;59.468;18.040;2022-10-16T10:36:25;7.07;;;2.37;;
50379;SDS011;37474;59.468;18.040;2022-10-16T10:38:59;4.07;;;1.97;;
50379;SDS011;37474;59.468;18.040;2022-10-16T10:41:36;8.30;;;2.50;;
50379;SDS011;37474;59.468;18.040;2022-10-16T10:44:22;4.67;;;2.10;;
50379;SDS011;37474;59.468;18.040;2022-10-16T10:47:01;5.57;;;2.50;;
50379;SDS011;37474;59.468;18.040;2022-10-16T10:49:43;3.90;;;2.17;;
50379;SDS011;37474;59.468;18.040;2022-10-16T10:52:27;7.87;;;2.10;;
50379;SDS011;37474;59.468;18.040;2022-10-16T10:55:09;7.82;;;2.13;;
50379;SDS011;37474;59.468;18.040;2022-10-16T10:57:46;5.97;;;2.20;;
50379;SDS011;37474;59.468;18.040;2022-10-16T11:00:33;8.13;;;2.87;;
50379;SDS011;37474;59.468;18.040;2022-10-16T11:03:13;5.30;;;2.67;;
50379;SDS011;37474;59.468;18.040;2022-10-16T11:05:56;7.50;;;2.40;;
50379;SDS011;37474;59.468;18.040;2022-10-16T11:08:33;7.95;;;2.22;;
50379;SDS011;37474;59.468;18.040;2022-10-16T11:11:07;8.82;;;2.22;;
50379;SDS011;37474;59.468;18.040;2022-10-16T11:13:42;6.25;;;2.30;;
50379;SDS011;37474;59.468;18.040;2022-10-16T11:16:20;6.50;;;2.55;;
50379;SDS011;37474;59.468;18.040;2022-10-16T11:18:55;4.28;;;2.30;;
50379;SDS011;37474;59.468;18.040;2022-10-16T11:21:28;6.47;;;2.20;;
50379;SDS011;37474;59.468;18.040;2022-10-16T11:24:04;7.18;;;2.22;;
50379;SDS011;37474;59.468;18.040;2022-10-16T11:26:42;5.63;;;2.10;;
50379;SDS011;37474;59.468;18.040;2022-10-16T11:29:16;7.75;;;2.08;;
50379;SDS011;37474;59.468;18.040;2022-10-16T11:31:50;7.82;;;2.25;;
50379;SDS011;37474;59.468;18.040;2022-10-16T11:34:25;5.72;;;1.88;;
50379;SDS011;37474;59.468;18.040;2022-10-16T11:39:36;8.88;;;2.58;;
50379;SDS011;37474;59.468;18.040;2022-10-16T11:42:08;8.77;;;2.80;;
50379;SDS011;37474;59.468;18.040;2022-10-16T11:44:42;6.35;;;2.58;;
50379;SDS011;37474;59.468;18.040;2022-10-16T11:47:27;8.25;;;2.63;;
50379;SDS011;37474;59.468;18.040;2022-10-16T11:50:22;9.13;;;2.40;;
50379;SDS011;37474;59.468;18.040;2022-10-16T11:52:55;5.75;;;2.45;;
50379;SDS011;37474;59.468;18.040;2022-10-16T11:55:30;8.07;;;2.60;;
50379;SDS011;37474;59.468;18.040;2022-10-16T11:58:04;6.57;;;2.38;;
50379;SDS011;37474;59.468;18.040;2022-10-16T12:00:38;8.95;;;2.80;;
50379;SDS011;37474;59.468;18.040;2022-10-16T12:03:13;6.07;;;2.00;;
50379;SDS011;37474;59.468;18.040;2022-10-16T12:05:52;8.43;;;2.22;;
50379;SDS011;37474;59.468;18.040;2022-10-16T12:08:46;6.05;;;1.98;;
50379;SDS011;37474;59.468;18.040;2022-10-16T12:11:24;6.18;;;2.13;;
50379;SDS011;37474;59.468;18.040;2022-10-16T12:17:25;5.05;;;1.92;;
50379;SDS011;37474;59.468;18.040;2022-10-16T12:20:12;7.82;;;2.28;;
50379;SDS011;37474;59.468;18.040;2022-10-16T12:22:48;4.47;;;2.20;;
50379;SDS011;37474;59.468;18.040;2022-10-16T12:27:54;3.58;;;2.00;;
50379;SDS011;37474;59.468;18.040;2022-10-16T12:30:25;6.70;;;2.45;;
50379;SDS011;37474;59.468;18.040;2022-10-16T12:33:01;7.82;;;2.28;;
50379;SDS011;37474;59.468;18.040;2022-10-16T12:35:33;8.13;;;2.05;;
50379;SDS011;37474;59.468;18.040;2022-10-16T12:38:17;5.70;;;2.17;;
50379;SDS011;37474;59.468;18.040;2022-10-16T12:40:47;9.85;;;2.60;;
50379;SDS011;37474;59.468;18.040;2022-10-16T12:43:28;4.47;;;2.10;;
50379;SDS011;37474;59.468;18.040;2022-10-16T12:46:20;5.68;;;2.13;;
50379;SDS011;37474;59.468;18.040;2022-10-16T12:48:53;8.75;;;2.60;;
50379;SDS011;37474;59.468;18.040;2022-10-16T12:51:35;5.88;;;2.60;;
50379;SDS011;37474;59.468;18.040;2022-10-16T12:54:11;5.68;;;2.53;;
50379;SDS011;37474;59.468;18.040;2022-10-16T12:56:43;5.07;;;2.40;;
50379;SDS011;37474;59.468;18.040;2022-10-16T12:59:24;8.20;;;2.65;;
50379;SDS011;37474;59.468;18.040;2022-10-16T13:02:07;4.93;;;2.42;;
50379;SDS011;37474;59.468;18.040;2022-10-16T13:04:51;8.00;;;2.88;;
50379;SDS011;37474;59.468;18.040;2022-10-16T13:07:39;7.57;;;2.28;;
50379;SDS011;37474;59.468;18.040;2022-10-16T13:10:22;6.75;;;2.67;;
50379;SDS011;37474;59.468;18.040;2022-10-16T13:13:16;11.65;;;3.25;;
50379;SDS011;37474;59.468;18.040;2022-10-16T13:16:01;9.85;;;2.50;;
50379;SDS011;37474;59.468;18.040;2022-10-16T13:18:43;6.95;;;2.90;;
50379;SDS011;37474;59.468;18.040;2022-10-16T13:21:23;6.10;;;2.70;;
50379;SDS011;37474;59.468;18.040;2022-10-16T13:24:02;7.90;;;2.40;;
50379;SDS011;37474;59.468;18.040;2022-10-16T13:26:44;8.15;;;2.00;;
50379;SDS011;37474;59.468;18.040;2022-10-16T13:29:17;3.65;;;2.13;;
50379;SDS011;37474;59.468;18.040;2022-10-16T13:31:48;6.90;;;2.08;;
50379;SDS011;37474;59.468;18.040;2022-10-16T13:34:17;5.60;;;2.28;;
50379;SDS011;37474;59.468;18.040;2022-10-16T13:36:51;3.92;;;1.92;;
50379;SDS011;37474;59.468;18.040;2022-10-16T13:39:21;5.68;;;2.25;;
50379;SDS011;37474;59.468;18.040;2022-10-16T13:42:02;3.08;;;1.90;;
50379;SDS011;37474;59.468;18.040;2022-10-16T13:44:36;4.70;;;1.73;;
50379;SDS011;37474;59.468;18.040;2022-10-16T13:47:16;6.40;;;2.28;;
50379;SDS011;37474;59.468;18.040;2022-10-16T13:49:46;5.93;;;2.00;;
50379;SDS011;37474;59.468;18.040;2022-10-16T13:52:16;5.43;;;1.92;;
50379;SDS011;37474;59.468;18.040;2022-10-16T13:57:16;4.13;;;2.00;;
50379;SDS011;37474;59.468;18.040;2022-10-16T13:59:53;6.28;;;2.40;;
50379;SDS011;37474;59.468;18.040;2022-10-16T14:02:25;7.72;;;2.30;;
50379;SDS011;37474;59.468;18.040;2022-10-16T14:04:55;10.03;;;2.60;;
50379;SDS011;37474;59.468;18.040;2022-10-16T14:07:27;12.27;;;2.77;;
50379;SDS011;37474;59.468;18.040;2022-10-16T14:10:00;4.83;;;2.00;;
50379;SDS011;37474;59.468;18.040;2022-10-16T14:12:32;6.30;;;2.50;;
50379;SDS011;37474;59.468;18.040;2022-10-16T14:15:00;4.20;;;1.73;;
50379;SDS011;37474;59.468;18.040;2022-10-16T14:17:30;4.27;;;1.50;;
50379;SDS011;37474;59.468;18.040;2022-10-16T14:20:03;3.03;;;1.33;;
50379;SDS011;37474;59.468;18.040;2022-10-16T14:22:33;4.07;;;1.40;;
50379;SDS011;37474;59.468;18.040;2022-10-16T14:25:16;3.60;;;1.30;;
50379;SDS011;37474;59.468;18.040;2022-10-16T14:27:59;2.43;;;1.10;;
50379;SDS011;37474;59.468;18.040;2022-10-16T14:30:30;3.50;;;1.27;;
50379;SDS011;37474;59.468;18.040;2022-10-16T14:33:02;4.32;;;2.15;;
50379;SDS011;37474;59.468;18.040;2022-10-16T14:35:34;5.67;;;2.60;;
50379;SDS011;37474;59.468;18.040;2022-10-16T14:38:04;5.53;;;2.10;;
50379;SDS011;37474;59.468;18.040;2022-10-16T14:40:38;2.23;;;1.43;;
50379;SDS011;37474;59.468;18.040;2022-10-16T14:43:16;4.20;;;1.53;;
50379;SDS011;37474;59.468;18.040;2022-10-16T14:45:50;4.77;;;1.70;;
50379;SDS011;37474;59.468;18.040;2022-10-16T14:48:21;3.53;;;1.53;;
50379;SDS011;37474;59.468;18.040;2022-10-16T14:50:50;3.60;;;1.60;;
50379;SDS011;37474;59.468;18.040;2022-10-16T14:56:12;7.17;;;2.10;;
50379;SDS011;37474;59.468;18.040;2022-10-16T14:58:46;3.80;;;1.90;;
50379;SDS011;37474;59.468;18.040;2022-10-16T15:01:17;4.63;;;2.00;;
50379;SDS011;37474;59.468;18.040;2022-10-16T15:03:47;8.97;;;2.47;;
50379;SDS011;37474;59.468;18.040;2022-10-16T15:06:15;10.75;;;2.90;;
50379;SDS011;37474;59.468;18.040;2022-10-16T15:08:43;6.87;;;2.70;;
50379;SDS011;37474;59.468;18.040;2022-10-16T15:11:11;5.20;;;2.30;;
50379;SDS011;37474;59.468;18.040;2022-10-16T15:13:41;9.13;;;2.75;;